sensor_id;sensor_type;location;lat;lon;timestamp;P1;durP1;ratioP1;P2;durP2;ratioP2
13483;SDS011;6814;57.786;12.080;2023-04-03T00:00:34;5.90;;;1.30;;
13483;SDS011;6814;57.786;12.080;2023-04-03T00:03:01;1.97;;;1.33;;
13483;SDS011;6814;57.786;12.080;2023-04-03T00:05:27;1.70;;;1.07;;
13483;SDS011;6814;57.786;12.080;2023-04-03T00:07:54;4.53;;;1.00;;
13483;SDS011;6814;57.786;12.080;2023-04-03T00:10:20;2.87;;;1.10;;
13483;SDS011;6814;57.786;12.080;2023-04-03T00:12:46;1.53;;;0.83;;
13483;SDS011;6814;57.786;12.080;2023-04-03T00:15:14;0.97;;;0.97;;
13483;SDS011;6814;57.786;12.080;2023-04-03T00:17:41;2.20;;;1.10;;
13483;SDS011;6814;57.786;12.080;2023-04-03T00:20:07;2.50;;;1.13;;
13483;SDS011;6814;57.786;12.080;2023-04-03T00:22:34;1.80;;;1.07;;
13483;SDS011;6814;57.786;12.080;2023-04-03T00:25:01;2.83;;;1.03;;
13483;SDS011;6814;57.786;12.080;2023-04-03T00:27:27;1.80;;;1.00;;
13483;SDS011;6814;57.786;12.080;2023-04-03T00:29:53;1.10;;;1.00;;
13483;SDS011;6814;57.786;12.080;2023-04-03T00:32:21;2.50;;;0.97;;
13483;SDS011;6814;57.786;12.080;2023-04-03T00:34:47;2.53;;;1.00;;
13483;SDS011;6814;57.786;12.080;2023-04-03T00:37:14;2.47;;;1.23;;
13483;SDS011;6814;57.786;12.080;2023-04-03T00:39:41;1.50;;;1.23;;
13483;SDS011;6814;57.786;12.080;2023-04-03T00:42:07;2.77;;;1.20;;
13483;SDS011;6814;57.786;12.080;2023-04-03T00:47:19;2.07;;;1.40;;
13483;SDS011;6814;57.786;12.080;2023-04-03T00:49:46;2.67;;;1.43;;
13483;SDS011;6814;57.786;12.080;2023-04-03T00:52:13;2.83;;;1.20;;
13483;SDS011;6814;57.786;12.080;2023-04-03T00:54:41;2.53;;;1.20;;
13483;SDS011;6814;57.786;12.080;2023-04-03T00:57:08;1.23;;;1.10;;
13483;SDS011;6814;57.786;12.080;2023-04-03T00:59:36;1.70;;;1.30;;
13483;SDS011;6814;57.786;12.080;2023-04-03T01:02:05;2.83;;;1.13;;
13483;SDS011;6814;57.786;12.080;2023-04-03T01:04:32;2.33;;;1.23;;
13483;SDS011;6814;57.786;12.080;2023-04-03T01:07:02;1.60;;;1.00;;
13483;SDS011;6814;57.786;12.080;2023-04-03T01:09:30;0.97;;;0.87;;
13483;SDS011;6814;57.786;12.080;2023-04-03T01:12:12;1.27;;;1.00;;
13483;SDS011;6814;57.786;12.080;2023-04-03T01:14:38;4.00;;;1.30;;
13483;SDS011;6814;57.786;12.080;2023-04-03T01:19:46;1.20;;;0.90;;
13483;SDS011;6814;57.786;12.080;2023-04-03T01:22:20;2.10;;;0.90;;
13483;SDS011;6814;57.786;12.080;2023-04-03T01:24:51;1.47;;;1.00;;
13483;SDS011;6814;57.786;12.080;2023-04-03T01:27:18;2.00;;;0.87;;
13483;SDS011;6814;57.786;12.080;2023-04-03T01:29:44;1.97;;;1.10;;
13483;SDS011;6814;57.786;12.080;2023-04-03T01:32:12;4.33;;;1.30;;
13483;SDS011;6814;57.786;12.080;2023-04-03T01:34:39;1.70;;;1.30;;
13483;SDS011;6814;57.786;12.080;2023-04-03T01:37:06;5.03;;;1.50;;
13483;SDS011;6814;57.786;12.080;2023-04-03T01:39:43;0.83;;;0.80;;
13483;SDS011;6814;57.786;12.080;2023-04-03T01:42:10;2.30;;;1.60;;
13483;SDS011;6814;57.786;12.080;2023-04-03T01:44:37;1.37;;;1.13;;
13483;SDS011;6814;57.786;12.080;2023-04-03T01:47:05;4.93;;;1.70;;
13483;SDS011;6814;57.786;12.080;2023-04-03T01:49:33;1.90;;;1.27;;
13483;SDS011;6814;57.786;12.080;2023-04-03T01:51:59;2.43;;;1.50;;
13483;SDS011;6814;57.786;12.080;2023-04-03T01:54:26;2.87;;;1.70;;
13483;SDS011;6814;57.786;12.080;2023-04-03T01:56:52;2.40;;;1.37;;
13483;SDS011;6814;57.786;12.080;2023-04-03T01:59:18;3.30;;;1.40;;
13483;SDS011;6814;57.786;12.080;2023-04-03T02:01:45;1.27;;;1.13;;
13483;SDS011;6814;57.786;12.080;2023-04-03T02:04:11;2.43;;;1.70;;
13483;SDS011;6814;57.786;12.080;2023-04-03T02:06:39;2.20;;;1.33;;
13483;SDS011;6814;57.786;12.080;2023-04-03T02:09:06;1.73;;;1.40;;
13483;SDS011;6814;57.786;12.080;2023-04-03T02:11:32;2.37;;;1.63;;
13483;SDS011;6814;57.786;12.080;2023-04-03T02:13:59;2.77;;;1.70;;
13483;SDS011;6814;57.786;12.080;2023-04-03T02:16:25;1.57;;;1.40;;
13483;SDS011;6814;57.786;12.080;2023-04-03T02:18:52;2.67;;;1.30;;
13483;SDS011;6814;57.786;12.080;2023-04-03T02:21:18;1.60;;;1.17;;
13483;SDS011;6814;57.786;12.080;2023-04-03T02:23:46;1.53;;;1.30;;
13483;SDS011;6814;57.786;12.080;2023-04-03T02:26:13;5.13;;;1.70;;
13483;SDS011;6814;57.786;12.080;2023-04-03T02:28:40;2.40;;;1.60;;
13483;SDS011;6814;57.786;12.080;2023-04-03T02:31:07;2.13;;;1.53;;
13483;SDS011;6814;57.786;12.080;2023-04-03T02:33:34;2.13;;;1.27;;
13483;SDS011;6814;57.786;12.080;2023-04-03T02:36:01;3.47;;;1.60;;
13483;SDS011;6814;57.786;12.080;2023-04-03T02:38:28;4.00;;;1.50;;
13483;SDS011;6814;57.786;12.080;2023-04-03T02:41:00;2.67;;;1.60;;
13483;SDS011;6814;57.786;12.080;2023-04-03T02:43:27;1.77;;;1.60;;
13483;SDS011;6814;57.786;12.080;2023-04-03T02:45:53;5.33;;;1.50;;
13483;SDS011;6814;57.786;12.080;2023-04-03T02:48:20;4.37;;;2.03;;
13483;SDS011;6814;57.786;12.080;2023-04-03T02:50:46;2.03;;;1.53;;
13483;SDS011;6814;57.786;12.080;2023-04-03T02:53:12;2.03;;;1.40;;
13483;SDS011;6814;57.786;12.080;2023-04-03T02:55:40;1.70;;;1.40;;
13483;SDS011;6814;57.786;12.080;2023-04-03T02:58:08;3.40;;;1.50;;
13483;SDS011;6814;57.786;12.080;2023-04-03T03:00:34;3.30;;;1.80;;
13483;SDS011;6814;57.786;12.080;2023-04-03T03:03:00;4.33;;;1.63;;
13483;SDS011;6814;57.786;12.080;2023-04-03T03:05:27;2.43;;;1.50;;
13483;SDS011;6814;57.786;12.080;2023-04-03T03:07:54;3.50;;;1.53;;
13483;SDS011;6814;57.786;12.080;2023-04-03T03:10:20;2.80;;;1.50;;
13483;SDS011;6814;57.786;12.080;2023-04-03T03:12:47;1.70;;;1.50;;
13483;SDS011;6814;57.786;12.080;2023-04-03T03:15:15;1.47;;;1.27;;
13483;SDS011;6814;57.786;12.080;2023-04-03T03:17:42;1.20;;;1.10;;
13483;SDS011;6814;57.786;12.080;2023-04-03T03:20:09;4.90;;;2.00;;
13483;SDS011;6814;57.786;12.080;2023-04-03T03:22:36;4.37;;;1.57;;
13483;SDS011;6814;57.786;12.080;2023-04-03T03:25:03;1.50;;;1.30;;
13483;SDS011;6814;57.786;12.080;2023-04-03T03:27:30;1.80;;;1.27;;
13483;SDS011;6814;57.786;12.080;2023-04-03T03:29:56;3.43;;;1.40;;
13483;SDS011;6814;57.786;12.080;2023-04-03T03:32:24;2.03;;;1.20;;
13483;SDS011;6814;57.786;12.080;2023-04-03T03:34:50;3.43;;;1.50;;
13483;SDS011;6814;57.786;12.080;2023-04-03T03:37:17;3.43;;;1.47;;
13483;SDS011;6814;57.786;12.080;2023-04-03T03:39:43;3.63;;;1.60;;
13483;SDS011;6814;57.786;12.080;2023-04-03T03:42:10;1.53;;;1.33;;
13483;SDS011;6814;57.786;12.080;2023-04-03T03:44:36;1.33;;;1.10;;
13483;SDS011;6814;57.786;12.080;2023-04-03T03:47:03;1.43;;;1.30;;
13483;SDS011;6814;57.786;12.080;2023-04-03T03:49:32;3.80;;;1.60;;
13483;SDS011;6814;57.786;12.080;2023-04-03T03:51:58;1.60;;;1.30;;
13483;SDS011;6814;57.786;12.080;2023-04-03T03:54:25;2.73;;;1.47;;
13483;SDS011;6814;57.786;12.080;2023-04-03T03:56:51;3.27;;;1.30;;
13483;SDS011;6814;57.786;12.080;2023-04-03T03:59:18;2.20;;;1.43;;
13483;SDS011;6814;57.786;12.080;2023-04-03T04:01:44;2.23;;;1.30;;
13483;SDS011;6814;57.786;12.080;2023-04-03T04:04:10;1.63;;;1.37;;
13483;SDS011;6814;57.786;12.080;2023-04-03T04:06:38;3.33;;;1.77;;
13483;SDS011;6814;57.786;12.080;2023-04-03T04:09:05;3.43;;;1.70;;
13483;SDS011;6814;57.786;12.080;2023-04-03T04:11:31;1.93;;;1.37;;
13483;SDS011;6814;57.786;12.080;2023-04-03T04:13:58;2.23;;;1.30;;
13483;SDS011;6814;57.786;12.080;2023-04-03T04:16:24;1.97;;;1.30;;
13483;SDS011;6814;57.786;12.080;2023-04-03T04:18:51;1.73;;;1.20;;
13483;SDS011;6814;57.786;12.080;2023-04-03T04:21:17;1.77;;;1.17;;
13483;SDS011;6814;57.786;12.080;2023-04-03T04:23:45;5.53;;;1.47;;
13483;SDS011;6814;57.786;12.080;2023-04-03T04:26:12;1.90;;;1.50;;
13483;SDS011;6814;57.786;12.080;2023-04-03T04:28:38;3.23;;;1.40;;
13483;SDS011;6814;57.786;12.080;2023-04-03T04:31:06;2.80;;;1.30;;
13483;SDS011;6814;57.786;12.080;2023-04-03T04:33:32;1.90;;;1.10;;
13483;SDS011;6814;57.786;12.080;2023-04-03T04:35:59;2.73;;;1.43;;
13483;SDS011;6814;57.786;12.080;2023-04-03T04:38:25;3.13;;;1.40;;
13483;SDS011;6814;57.786;12.080;2023-04-03T04:40:53;1.93;;;1.23;;
13483;SDS011;6814;57.786;12.080;2023-04-03T04:43:20;1.67;;;1.13;;
13483;SDS011;6814;57.786;12.080;2023-04-03T04:45:46;1.40;;;1.30;;
13483;SDS011;6814;57.786;12.080;2023-04-03T04:48:13;3.20;;;1.30;;
13483;SDS011;6814;57.786;12.080;2023-04-03T04:50:39;2.40;;;1.30;;
13483;SDS011;6814;57.786;12.080;2023-04-03T04:53:06;2.33;;;1.70;;
13483;SDS011;6814;57.786;12.080;2023-04-03T04:55:33;3.43;;;1.50;;
13483;SDS011;6814;57.786;12.080;2023-04-03T04:58:01;1.90;;;1.40;;
13483;SDS011;6814;57.786;12.080;2023-04-03T05:00:28;2.17;;;1.30;;
13483;SDS011;6814;57.786;12.080;2023-04-03T05:02:54;2.23;;;1.50;;
13483;SDS011;6814;57.786;12.080;2023-04-03T05:05:21;1.50;;;1.40;;
13483;SDS011;6814;57.786;12.080;2023-04-03T05:07:47;3.33;;;1.60;;
13483;SDS011;6814;57.786;12.080;2023-04-03T05:10:14;1.50;;;1.40;;
13483;SDS011;6814;57.786;12.080;2023-04-03T05:12:40;1.70;;;1.20;;
13483;SDS011;6814;57.786;12.080;2023-04-03T05:15:09;3.23;;;1.60;;
13483;SDS011;6814;57.786;12.080;2023-04-03T05:17:35;3.90;;;1.40;;
13483;SDS011;6814;57.786;12.080;2023-04-03T05:20:02;1.60;;;1.50;;
13483;SDS011;6814;57.786;12.080;2023-04-03T05:22:29;3.50;;;1.30;;
13483;SDS011;6814;57.786;12.080;2023-04-03T05:24:56;4.87;;;1.93;;
13483;SDS011;6814;57.786;12.080;2023-04-03T05:27:25;2.03;;;1.20;;
13483;SDS011;6814;57.786;12.080;2023-04-03T05:29:53;2.60;;;1.40;;
13483;SDS011;6814;57.786;12.080;2023-04-03T05:32:21;1.43;;;1.10;;
13483;SDS011;6814;57.786;12.080;2023-04-03T05:34:47;3.97;;;1.40;;
13483;SDS011;6814;57.786;12.080;2023-04-03T05:37:14;1.53;;;1.20;;
13483;SDS011;6814;57.786;12.080;2023-04-03T05:39:50;2.17;;;1.43;;
13483;SDS011;6814;57.786;12.080;2023-04-03T05:42:19;4.07;;;1.30;;
13483;SDS011;6814;57.786;12.080;2023-04-03T05:44:46;3.50;;;1.77;;
13483;SDS011;6814;57.786;12.080;2023-04-03T05:47:13;3.07;;;1.50;;
13483;SDS011;6814;57.786;12.080;2023-04-03T05:49:41;1.30;;;1.03;;
13483;SDS011;6814;57.786;12.080;2023-04-03T05:52:11;2.33;;;1.37;;
13483;SDS011;6814;57.786;12.080;2023-04-03T05:54:45;1.43;;;0.90;;
13483;SDS011;6814;57.786;12.080;2023-04-03T05:57:13;1.37;;;1.23;;
13483;SDS011;6814;57.786;12.080;2023-04-03T05:59:41;0.97;;;0.87;;
13483;SDS011;6814;57.786;12.080;2023-04-03T06:02:08;0.93;;;0.80;;
13483;SDS011;6814;57.786;12.080;2023-04-03T06:04:35;2.37;;;1.00;;
13483;SDS011;6814;57.786;12.080;2023-04-03T06:07:04;3.37;;;1.20;;
13483;SDS011;6814;57.786;12.080;2023-04-03T06:09:31;4.97;;;1.00;;
13483;SDS011;6814;57.786;12.080;2023-04-03T06:11:58;2.17;;;1.10;;
13483;SDS011;6814;57.786;12.080;2023-04-03T06:14:25;1.13;;;1.07;;
13483;SDS011;6814;57.786;12.080;2023-04-03T06:16:52;1.27;;;0.77;;
13483;SDS011;6814;57.786;12.080;2023-04-03T06:19:19;1.87;;;0.90;;
13483;SDS011;6814;57.786;12.080;2023-04-03T06:21:45;1.77;;;0.93;;
13483;SDS011;6814;57.786;12.080;2023-04-03T06:24:15;1.10;;;1.00;;
13483;SDS011;6814;57.786;12.080;2023-04-03T06:26:42;6.93;;;1.47;;
13483;SDS011;6814;57.786;12.080;2023-04-03T06:29:09;5.03;;;0.97;;
13483;SDS011;6814;57.786;12.080;2023-04-03T06:31:35;2.77;;;1.30;;
13483;SDS011;6814;57.786;12.080;2023-04-03T06:34:02;4.13;;;1.47;;
13483;SDS011;6814;57.786;12.080;2023-04-03T06:36:28;1.27;;;0.80;;
13483;SDS011;6814;57.786;12.080;2023-04-03T06:41:53;2.13;;;1.40;;
13483;SDS011;6814;57.786;12.080;2023-04-03T06:44:37;1.70;;;1.23;;
13483;SDS011;6814;57.786;12.080;2023-04-03T06:47:03;2.53;;;1.40;;
13483;SDS011;6814;57.786;12.080;2023-04-03T06:49:30;2.93;;;1.63;;
13483;SDS011;6814;57.786;12.080;2023-04-03T06:51:57;1.50;;;1.40;;
13483;SDS011;6814;57.786;12.080;2023-04-03T06:54:23;2.20;;;1.00;;
13483;SDS011;6814;57.786;12.080;2023-04-03T06:56:51;2.47;;;1.20;;
13483;SDS011;6814;57.786;12.080;2023-04-03T06:59:17;2.63;;;1.27;;
13483;SDS011;6814;57.786;12.080;2023-04-03T07:01:44;3.10;;;1.13;;
13483;SDS011;6814;57.786;12.080;2023-04-03T07:04:11;2.37;;;1.20;;
13483;SDS011;6814;57.786;12.080;2023-04-03T07:06:37;1.70;;;1.13;;
13483;SDS011;6814;57.786;12.080;2023-04-03T07:09:04;2.10;;;1.07;;
13483;SDS011;6814;57.786;12.080;2023-04-03T07:11:30;1.57;;;1.10;;
13483;SDS011;6814;57.786;12.080;2023-04-03T07:13:58;1.73;;;1.20;;
13483;SDS011;6814;57.786;12.080;2023-04-03T07:16:24;2.37;;;1.10;;
13483;SDS011;6814;57.786;12.080;2023-04-03T07:18:51;1.43;;;1.10;;
13483;SDS011;6814;57.786;12.080;2023-04-03T07:21:17;1.73;;;1.43;;
13483;SDS011;6814;57.786;12.080;2023-04-03T07:23:43;1.40;;;1.30;;
13483;SDS011;6814;57.786;12.080;2023-04-03T07:26:10;1.70;;;1.23;;
13483;SDS011;6814;57.786;12.080;2023-04-03T07:28:36;3.13;;;1.27;;
13483;SDS011;6814;57.786;12.080;2023-04-03T07:31:07;4.00;;;1.67;;
13483;SDS011;6814;57.786;12.080;2023-04-03T07:33:36;5.40;;;1.30;;
13483;SDS011;6814;57.786;12.080;2023-04-03T07:36:03;0.83;;;0.73;;
13483;SDS011;6814;57.786;12.080;2023-04-03T07:38:29;1.40;;;0.93;;
13483;SDS011;6814;57.786;12.080;2023-04-03T07:40:56;2.60;;;1.20;;
13483;SDS011;6814;57.786;12.080;2023-04-03T07:43:23;1.27;;;0.83;;
13483;SDS011;6814;57.786;12.080;2023-04-03T07:45:50;2.43;;;0.70;;
13483;SDS011;6814;57.786;12.080;2023-04-03T07:48:19;7.40;;;0.80;;
13483;SDS011;6814;57.786;12.080;2023-04-03T07:50:46;0.80;;;0.70;;
13483;SDS011;6814;57.786;12.080;2023-04-03T07:53:12;1.10;;;0.70;;
13483;SDS011;6814;57.786;12.080;2023-04-03T07:55:39;1.33;;;0.70;;
13483;SDS011;6814;57.786;12.080;2023-04-03T07:58:08;2.13;;;0.70;;
13483;SDS011;6814;57.786;12.080;2023-04-03T08:00:35;1.73;;;0.87;;
13483;SDS011;6814;57.786;12.080;2023-04-03T08:03:02;2.23;;;0.90;;
13483;SDS011;6814;57.786;12.080;2023-04-03T08:05:30;1.90;;;0.70;;
13483;SDS011;6814;57.786;12.080;2023-04-03T08:07:56;1.77;;;0.70;;
13483;SDS011;6814;57.786;12.080;2023-04-03T08:10:23;1.43;;;0.90;;
13483;SDS011;6814;57.786;12.080;2023-04-03T08:12:49;2.80;;;0.80;;
13483;SDS011;6814;57.786;12.080;2023-04-03T08:15:16;1.23;;;0.57;;
13483;SDS011;6814;57.786;12.080;2023-04-03T08:17:43;3.20;;;0.60;;
13483;SDS011;6814;57.786;12.080;2023-04-03T08:20:09;3.77;;;0.53;;
13483;SDS011;6814;57.786;12.080;2023-04-03T08:22:37;1.60;;;0.70;;
13483;SDS011;6814;57.786;12.080;2023-04-03T08:25:04;0.37;;;0.30;;
13483;SDS011;6814;57.786;12.080;2023-04-03T08:27:31;1.07;;;0.63;;
13483;SDS011;6814;57.786;12.080;2023-04-03T08:29:57;2.87;;;0.80;;
13483;SDS011;6814;57.786;12.080;2023-04-03T08:32:23;1.20;;;0.50;;
13483;SDS011;6814;57.786;12.080;2023-04-03T08:34:50;1.47;;;0.53;;
13483;SDS011;6814;57.786;12.080;2023-04-03T08:37:17;1.27;;;0.73;;
13483;SDS011;6814;57.786;12.080;2023-04-03T08:39:45;1.10;;;0.60;;
13483;SDS011;6814;57.786;12.080;2023-04-03T08:42:14;2.00;;;0.77;;
13483;SDS011;6814;57.786;12.080;2023-04-03T08:44:44;1.03;;;0.50;;
13483;SDS011;6814;57.786;12.080;2023-04-03T08:47:15;1.73;;;0.50;;
13483;SDS011;6814;57.786;12.080;2023-04-03T08:49:44;1.17;;;0.47;;
13483;SDS011;6814;57.786;12.080;2023-04-03T08:52:17;0.73;;;0.53;;
13483;SDS011;6814;57.786;12.080;2023-04-03T08:54:49;1.07;;;0.50;;
13483;SDS011;6814;57.786;12.080;2023-04-03T08:57:16;0.60;;;0.50;;
13483;SDS011;6814;57.786;12.080;2023-04-03T08:59:44;0.70;;;0.50;;
13483;SDS011;6814;57.786;12.080;2023-04-03T09:02:18;2.03;;;0.70;;
13483;SDS011;6814;57.786;12.080;2023-04-03T09:04:47;0.83;;;0.50;;
13483;SDS011;6814;57.786;12.080;2023-04-03T09:07:15;1.90;;;0.60;;
13483;SDS011;6814;57.786;12.080;2023-04-03T09:09:45;1.13;;;0.30;;
13483;SDS011;6814;57.786;12.080;2023-04-03T09:12:17;0.93;;;0.40;;
13483;SDS011;6814;57.786;12.080;2023-04-03T09:14:46;2.33;;;0.43;;
13483;SDS011;6814;57.786;12.080;2023-04-03T09:17:15;1.17;;;0.60;;
13483;SDS011;6814;57.786;12.080;2023-04-03T09:19:46;2.17;;;0.40;;
13483;SDS011;6814;57.786;12.080;2023-04-03T09:22:18;0.60;;;0.40;;
13483;SDS011;6814;57.786;12.080;2023-04-03T09:24:47;2.30;;;0.80;;
13483;SDS011;6814;57.786;12.080;2023-04-03T09:27:20;1.73;;;0.70;;
13483;SDS011;6814;57.786;12.080;2023-04-03T09:29:47;0.73;;;0.40;;
13483;SDS011;6814;57.786;12.080;2023-04-03T09:32:18;1.03;;;0.30;;
13483;SDS011;6814;57.786;12.080;2023-04-03T09:34:45;0.60;;;0.60;;
13483;SDS011;6814;57.786;12.080;2023-04-03T09:37:18;0.43;;;0.43;;
13483;SDS011;6814;57.786;12.080;2023-04-03T09:39:58;0.43;;;0.30;;
13483;SDS011;6814;57.786;12.080;2023-04-03T09:42:27;0.57;;;0.43;;
13483;SDS011;6814;57.786;12.080;2023-04-03T09:44:56;1.07;;;0.50;;
13483;SDS011;6814;57.786;12.080;2023-04-03T09:47:23;1.87;;;0.70;;
13483;SDS011;6814;57.786;12.080;2023-04-03T09:49:50;0.60;;;0.43;;
13483;SDS011;6814;57.786;12.080;2023-04-03T09:52:22;2.47;;;0.37;;
13483;SDS011;6814;57.786;12.080;2023-04-03T09:54:49;1.70;;;0.47;;
13483;SDS011;6814;57.786;12.080;2023-04-03T09:57:15;0.57;;;0.50;;
13483;SDS011;6814;57.786;12.080;2023-04-03T09:59:45;1.93;;;0.50;;
13483;SDS011;6814;57.786;12.080;2023-04-03T10:02:34;2.17;;;0.43;;
13483;SDS011;6814;57.786;12.080;2023-04-03T10:05:02;3.53;;;0.80;;
13483;SDS011;6814;57.786;12.080;2023-04-03T10:07:30;2.20;;;0.77;;
13483;SDS011;6814;57.786;12.080;2023-04-03T10:09:57;3.00;;;0.77;;
13483;SDS011;6814;57.786;12.080;2023-04-03T10:12:23;1.87;;;0.70;;
13483;SDS011;6814;57.786;12.080;2023-04-03T10:14:55;0.87;;;0.40;;
13483;SDS011;6814;57.786;12.080;2023-04-03T10:17:23;0.70;;;0.37;;
13483;SDS011;6814;57.786;12.080;2023-04-03T10:19:53;1.70;;;0.60;;
13483;SDS011;6814;57.786;12.080;2023-04-03T10:22:24;1.00;;;0.50;;
13483;SDS011;6814;57.786;12.080;2023-04-03T10:24:58;1.43;;;0.40;;
13483;SDS011;6814;57.786;12.080;2023-04-03T10:27:29;1.67;;;0.53;;
13483;SDS011;6814;57.786;12.080;2023-04-03T10:30:02;4.93;;;0.40;;
13483;SDS011;6814;57.786;12.080;2023-04-03T10:32:35;1.13;;;0.50;;
13483;SDS011;6814;57.786;12.080;2023-04-03T10:35:08;2.13;;;0.50;;
13483;SDS011;6814;57.786;12.080;2023-04-03T10:37:41;1.63;;;0.30;;
13483;SDS011;6814;57.786;12.080;2023-04-03T10:40:15;0.30;;;0.30;;
13483;SDS011;6814;57.786;12.080;2023-04-03T10:42:46;0.67;;;0.43;;
13483;SDS011;6814;57.786;12.080;2023-04-03T10:45:18;1.70;;;0.63;;
13483;SDS011;6814;57.786;12.080;2023-04-03T10:47:46;0.90;;;0.63;;
13483;SDS011;6814;57.786;12.080;2023-04-03T10:50:22;1.10;;;0.40;;
13483;SDS011;6814;57.786;12.080;2023-04-03T10:52:52;2.00;;;0.60;;
13483;SDS011;6814;57.786;12.080;2023-04-03T10:55:24;2.07;;;0.40;;
13483;SDS011;6814;57.786;12.080;2023-04-03T10:57:53;0.87;;;0.60;;
13483;SDS011;6814;57.786;12.080;2023-04-03T11:00:25;1.30;;;0.50;;
13483;SDS011;6814;57.786;12.080;2023-04-03T11:02:54;1.63;;;0.50;;
13483;SDS011;6814;57.786;12.080;2023-04-03T11:05:26;1.67;;;0.50;;
13483;SDS011;6814;57.786;12.080;2023-04-03T11:07:56;0.67;;;0.50;;
13483;SDS011;6814;57.786;12.080;2023-04-03T11:10:25;2.63;;;0.77;;
13483;SDS011;6814;57.786;12.080;2023-04-03T11:12:54;0.70;;;0.53;;
13483;SDS011;6814;57.786;12.080;2023-04-03T11:15:24;1.70;;;0.63;;
13483;SDS011;6814;57.786;12.080;2023-04-03T11:17:51;1.73;;;0.50;;
13483;SDS011;6814;57.786;12.080;2023-04-03T11:20:21;1.17;;;0.30;;
13483;SDS011;6814;57.786;12.080;2023-04-03T11:22:53;0.60;;;0.40;;
13483;SDS011;6814;57.786;12.080;2023-04-03T11:25:24;1.10;;;0.50;;
13483;SDS011;6814;57.786;12.080;2023-04-03T11:27:54;0.60;;;0.60;;
13483;SDS011;6814;57.786;12.080;2023-04-03T11:30:22;1.37;;;0.60;;
13483;SDS011;6814;57.786;12.080;2023-04-03T11:35:36;0.40;;;0.40;;
13483;SDS011;6814;57.786;12.080;2023-04-03T11:38:03;1.00;;;0.70;;
13483;SDS011;6814;57.786;12.080;2023-04-03T11:40:32;1.60;;;0.70;;
13483;SDS011;6814;57.786;12.080;2023-04-03T11:43:04;1.60;;;0.60;;
13483;SDS011;6814;57.786;12.080;2023-04-03T11:45:33;1.57;;;0.70;;
13483;SDS011;6814;57.786;12.080;2023-04-03T11:48:01;1.23;;;0.67;;
13483;SDS011;6814;57.786;12.080;2023-04-03T11:50:32;2.33;;;0.77;;
13483;SDS011;6814;57.786;12.080;2023-04-03T11:55:57;1.07;;;0.60;;
13483;SDS011;6814;57.786;12.080;2023-04-03T11:58:25;0.93;;;0.60;;
13483;SDS011;6814;57.786;12.080;2023-04-03T12:00:55;1.03;;;0.80;;
13483;SDS011;6814;57.786;12.080;2023-04-03T12:09:23;1.23;;;0.50;;
13483;SDS011;6814;57.786;12.080;2023-04-03T12:11:52;0.90;;;0.70;;
13483;SDS011;6814;57.786;12.080;2023-04-03T12:14:19;1.13;;;0.50;;
13483;SDS011;6814;57.786;12.080;2023-04-03T12:16:49;1.07;;;0.40;;
13483;SDS011;6814;57.786;12.080;2023-04-03T12:19:27;1.70;;;0.50;;
13483;SDS011;6814;57.786;12.080;2023-04-03T12:24:46;0.93;;;0.63;;
13483;SDS011;6814;57.786;12.080;2023-04-03T12:33:02;0.83;;;0.80;;
13483;SDS011;6814;57.786;12.080;2023-04-03T12:35:31;2.67;;;0.70;;
13483;SDS011;6814;57.786;12.080;2023-04-03T12:40:52;1.10;;;0.70;;
13483;SDS011;6814;57.786;12.080;2023-04-03T12:43:33;0.60;;;0.60;;
13483;SDS011;6814;57.786;12.080;2023-04-03T12:46:02;0.40;;;0.40;;
13483;SDS011;6814;57.786;12.080;2023-04-03T12:48:31;0.40;;;0.40;;
13483;SDS011;6814;57.786;12.080;2023-04-03T12:50:57;0.63;;;0.60;;
13483;SDS011;6814;57.786;12.080;2023-04-03T12:53:24;2.23;;;0.50;;
13483;SDS011;6814;57.786;12.080;2023-04-03T12:55:53;1.80;;;0.50;;
13483;SDS011;6814;57.786;12.080;2023-04-03T12:58:21;0.80;;;0.80;;
13483;SDS011;6814;57.786;12.080;2023-04-03T13:00:57;0.90;;;0.40;;
13483;SDS011;6814;57.786;12.080;2023-04-03T13:03:25;1.40;;;0.60;;
13483;SDS011;6814;57.786;12.080;2023-04-03T13:05:53;0.97;;;0.83;;
13483;SDS011;6814;57.786;12.080;2023-04-03T13:08:21;1.20;;;0.60;;
13483;SDS011;6814;57.786;12.080;2023-04-03T13:10:51;1.97;;;0.63;;
13483;SDS011;6814;57.786;12.080;2023-04-03T13:13:18;1.63;;;0.70;;
13483;SDS011;6814;57.786;12.080;2023-04-03T13:15:45;1.80;;;0.63;;
13483;SDS011;6814;57.786;12.080;2023-04-03T13:18:27;1.77;;;0.53;;
13483;SDS011;6814;57.786;12.080;2023-04-03T13:20:57;1.53;;;0.77;;
13483;SDS011;6814;57.786;12.080;2023-04-03T13:23:26;0.90;;;0.60;;
13483;SDS011;6814;57.786;12.080;2023-04-03T13:25:52;0.80;;;0.60;;
13483;SDS011;6814;57.786;12.080;2023-04-03T13:28:20;0.80;;;0.63;;
13483;SDS011;6814;57.786;12.080;2023-04-03T13:30:54;0.73;;;0.40;;
13483;SDS011;6814;57.786;12.080;2023-04-03T13:33:23;0.83;;;0.67;;
13483;SDS011;6814;57.786;12.080;2023-04-03T13:35:55;0.47;;;0.47;;
13483;SDS011;6814;57.786;12.080;2023-04-03T13:38:23;1.30;;;0.60;;
13483;SDS011;6814;57.786;12.080;2023-04-03T13:40:50;0.67;;;0.50;;
13483;SDS011;6814;57.786;12.080;2023-04-03T13:43:17;0.47;;;0.47;;
13483;SDS011;6814;57.786;12.080;2023-04-03T13:45:54;2.13;;;0.70;;
13483;SDS011;6814;57.786;12.080;2023-04-03T13:48:21;3.13;;;0.90;;
13483;SDS011;6814;57.786;12.080;2023-04-03T13:50:59;1.63;;;0.90;;
13483;SDS011;6814;57.786;12.080;2023-04-03T13:53:26;2.20;;;1.00;;
13483;SDS011;6814;57.786;12.080;2023-04-03T13:58:35;1.47;;;0.70;;
13483;SDS011;6814;57.786;12.080;2023-04-03T14:01:06;0.97;;;0.80;;
13483;SDS011;6814;57.786;12.080;2023-04-03T14:03:42;1.47;;;0.80;;
13483;SDS011;6814;57.786;12.080;2023-04-03T14:06:12;0.80;;;0.60;;
13483;SDS011;6814;57.786;12.080;2023-04-03T14:08:38;1.57;;;0.73;;
13483;SDS011;6814;57.786;12.080;2023-04-03T14:11:07;1.10;;;0.70;;
13483;SDS011;6814;57.786;12.080;2023-04-03T14:13:34;0.73;;;0.50;;
13483;SDS011;6814;57.786;12.080;2023-04-03T14:16:01;1.17;;;0.67;;
13483;SDS011;6814;57.786;12.080;2023-04-03T14:18:27;4.13;;;0.60;;
13483;SDS011;6814;57.786;12.080;2023-04-03T14:20:54;2.17;;;0.80;;
13483;SDS011;6814;57.786;12.080;2023-04-03T14:23:22;3.00;;;1.23;;
13483;SDS011;6814;57.786;12.080;2023-04-03T14:25:49;1.80;;;0.90;;
13483;SDS011;6814;57.786;12.080;2023-04-03T14:28:17;1.20;;;0.60;;
13483;SDS011;6814;57.786;12.080;2023-04-03T14:30:44;1.37;;;0.70;;
13483;SDS011;6814;57.786;12.080;2023-04-03T14:33:12;2.20;;;0.80;;
13483;SDS011;6814;57.786;12.080;2023-04-03T14:35:39;1.70;;;0.70;;
13483;SDS011;6814;57.786;12.080;2023-04-03T14:38:09;2.67;;;1.00;;
13483;SDS011;6814;57.786;12.080;2023-04-03T14:40:40;2.13;;;0.90;;
13483;SDS011;6814;57.786;12.080;2023-04-03T14:43:08;1.80;;;0.93;;
13483;SDS011;6814;57.786;12.080;2023-04-03T14:45:36;0.67;;;0.43;;
13483;SDS011;6814;57.786;12.080;2023-04-03T14:48:02;0.90;;;0.67;;
13483;SDS011;6814;57.786;12.080;2023-04-03T14:50:29;0.60;;;0.60;;
13483;SDS011;6814;57.786;12.080;2023-04-03T14:52:56;2.00;;;0.90;;
13483;SDS011;6814;57.786;12.080;2023-04-03T14:55:24;1.23;;;0.70;;
13483;SDS011;6814;57.786;12.080;2023-04-03T14:57:52;1.37;;;0.57;;
13483;SDS011;6814;57.786;12.080;2023-04-03T15:00:19;1.30;;;0.83;;
13483;SDS011;6814;57.786;12.080;2023-04-03T15:02:46;1.03;;;0.90;;
13483;SDS011;6814;57.786;12.080;2023-04-03T15:05:12;2.57;;;0.73;;
13483;SDS011;6814;57.786;12.080;2023-04-03T15:07:40;2.73;;;1.10;;
13483;SDS011;6814;57.786;12.080;2023-04-03T15:10:14;0.93;;;0.77;;
13483;SDS011;6814;57.786;12.080;2023-04-03T15:12:40;3.87;;;0.83;;
13483;SDS011;6814;57.786;12.080;2023-04-03T15:15:09;1.23;;;0.70;;
13483;SDS011;6814;57.786;12.080;2023-04-03T15:17:36;1.77;;;0.80;;
13483;SDS011;6814;57.786;12.080;2023-04-03T15:20:03;1.00;;;0.80;;
13483;SDS011;6814;57.786;12.080;2023-04-03T15:22:29;1.90;;;0.83;;
13483;SDS011;6814;57.786;12.080;2023-04-03T15:24:56;0.73;;;0.70;;
13483;SDS011;6814;57.786;12.080;2023-04-03T15:27:22;2.00;;;0.80;;